sensor_id;sensor_type;location;lat;lon;timestamp;P1;durP1;ratioP1;P2;durP2;ratioP2
2930;SDS011;1475;51.454;7.150;2022-08-14T00:02:14;6.75;;;5.28;;
2930;SDS011;1475;51.454;7.150;2022-08-14T00:04:40;8.07;;;4.95;;
2930;SDS011;1475;51.454;7.150;2022-08-14T00:07:08;6.10;;;5.50;;
2930;SDS011;1475;51.454;7.150;2022-08-14T00:09:36;5.97;;;5.28;;
2930;SDS011;1475;51.454;7.150;2022-08-14T00:12:03;6.40;;;5.38;;
2930;SDS011;1475;51.454;7.150;2022-08-14T00:14:32;5.28;;;4.78;;
2930;SDS011;1475;51.454;7.150;2022-08-14T00:16:59;7.13;;;6.07;;
2930;SDS011;1475;51.454;7.150;2022-08-14T00:19:25;6.28;;;5.22;;
2930;SDS011;1475;51.454;7.150;2022-08-14T00:21:52;6.10;;;5.50;;
2930;SDS011;1475;51.454;7.150;2022-08-14T00:24:20;7.03;;;5.70;;
2930;SDS011;1475;51.454;7.150;2022-08-14T00:26:47;5.82;;;5.32;;
2930;SDS011;1475;51.454;7.150;2022-08-14T00:29:14;7.18;;;6.25;;
2930;SDS011;1475;51.454;7.150;2022-08-14T00:31:42;7.38;;;5.78;;
2930;SDS011;1475;51.454;7.150;2022-08-14T00:34:09;5.97;;;5.37;;
2930;SDS011;1475;51.454;7.150;2022-08-14T00:36:35;7.30;;;5.50;;
2930;SDS011;1475;51.454;7.150;2022-08-14T00:39:02;6.90;;;5.57;;
2930;SDS011;1475;51.454;7.150;2022-08-14T00:41:30;6.03;;;5.43;;
2930;SDS011;1475;51.454;7.150;2022-08-14T00:43:57;6.72;;;5.80;;
2930;SDS011;1475;51.454;7.150;2022-08-14T00:46:25;6.57;;;5.97;;
2930;SDS011;1475;51.454;7.150;2022-08-14T00:48:53;7.63;;;5.32;;
2930;SDS011;1475;51.454;7.150;2022-08-14T00:51:20;7.35;;;5.80;;
2930;SDS011;1475;51.454;7.150;2022-08-14T00:53:47;8.35;;;5.53;;
2930;SDS011;1475;51.454;7.150;2022-08-14T00:56:15;7.00;;;6.30;;
2930;SDS011;1475;51.454;7.150;2022-08-14T00:58:42;7.72;;;6.32;;
2930;SDS011;1475;51.454;7.150;2022-08-14T01:01:11;7.30;;;6.05;;
2930;SDS011;1475;51.454;7.150;2022-08-14T01:03:40;7.25;;;6.40;;
2930;SDS011;1475;51.454;7.150;2022-08-14T01:06:09;8.73;;;6.10;;
2930;SDS011;1475;51.454;7.150;2022-08-14T01:08:38;6.80;;;6.00;;
2930;SDS011;1475;51.454;7.150;2022-08-14T01:11:08;5.70;;;5.10;;
2930;SDS011;1475;51.454;7.150;2022-08-14T01:13:40;6.72;;;5.68;;
2930;SDS011;1475;51.454;7.150;2022-08-14T01:16:09;11.43;;;7.43;;
2930;SDS011;1475;51.454;7.150;2022-08-14T01:18:38;8.30;;;6.50;;
2930;SDS011;1475;51.454;7.150;2022-08-14T01:21:24;9.20;;;6.90;;
2930;SDS011;1475;51.454;7.150;2022-08-14T01:23:56;7.85;;;7.00;;
2930;SDS011;1475;51.454;7.150;2022-08-14T01:26:24;6.93;;;6.22;;
2930;SDS011;1475;51.454;7.150;2022-08-14T01:28:53;8.20;;;7.28;;
2930;SDS011;1475;51.454;7.150;2022-08-14T01:31:22;8.68;;;7.18;;
2930;SDS011;1475;51.454;7.150;2022-08-14T01:33:53;8.32;;;6.65;;
2930;SDS011;1475;51.454;7.150;2022-08-14T01:36:22;7.00;;;6.30;;
2930;SDS011;1475;51.454;7.150;2022-08-14T01:38:52;6.75;;;6.05;;
2930;SDS011;1475;51.454;7.150;2022-08-14T01:41:22;7.93;;;7.13;;
2930;SDS011;1475;51.454;7.150;2022-08-14T01:43:51;8.25;;;6.13;;
2930;SDS011;1475;51.454;7.150;2022-08-14T01:46:25;7.50;;;6.80;;
2930;SDS011;1475;51.454;7.150;2022-08-14T01:48:53;7.50;;;6.80;;
2930;SDS011;1475;51.454;7.150;2022-08-14T01:51:21;7.43;;;6.30;;
2930;SDS011;1475;51.454;7.150;2022-08-14T01:53:52;7.20;;;6.50;;
2930;SDS011;1475;51.454;7.150;2022-08-14T01:56:21;7.18;;;6.47;;
2930;SDS011;1475;51.454;7.150;2022-08-14T01:58:59;7.88;;;7.07;;
2930;SDS011;1475;51.454;7.150;2022-08-14T02:01:26;8.25;;;6.72;;
2930;SDS011;1475;51.454;7.150;2022-08-14T02:03:53;8.10;;;7.30;;
2930;SDS011;1475;51.454;7.150;2022-08-14T02:06:20;8.05;;;6.70;;
2930;SDS011;1475;51.454;7.150;2022-08-14T02:08:47;9.43;;;7.72;;
2930;SDS011;1475;51.454;7.150;2022-08-14T02:11:15;7.78;;;6.97;;
2930;SDS011;1475;51.454;7.150;2022-08-14T02:13:43;8.73;;;7.90;;
2930;SDS011;1475;51.454;7.150;2022-08-14T02:16:11;8.13;;;7.28;;
2930;SDS011;1475;51.454;7.150;2022-08-14T02:18:40;8.30;;;7.50;;
2930;SDS011;1475;51.454;7.150;2022-08-14T02:21:07;8.02;;;7.03;;
2930;SDS011;1475;51.454;7.150;2022-08-14T02:23:36;8.60;;;7.68;;
2930;SDS011;1475;51.454;7.150;2022-08-14T02:26:12;9.10;;;8.20;;
2930;SDS011;1475;51.454;7.150;2022-08-14T02:28:42;8.73;;;7.40;;
2930;SDS011;1475;51.454;7.150;2022-08-14T02:31:10;8.20;;;7.45;;
2930;SDS011;1475;51.454;7.150;2022-08-14T02:33:37;7.90;;;7.13;;
2930;SDS011;1475;51.454;7.150;2022-08-14T02:36:05;8.40;;;7.60;;
2930;SDS011;1475;51.454;7.150;2022-08-14T02:38:33;8.70;;;7.90;;
2930;SDS011;1475;51.454;7.150;2022-08-14T02:41:00;8.73;;;7.90;;
2930;SDS011;1475;51.454;7.150;2022-08-14T02:43:27;9.20;;;8.30;;
2930;SDS011;1475;51.454;7.150;2022-08-14T02:45:57;8.70;;;7.90;;
2930;SDS011;1475;51.454;7.150;2022-08-14T02:48:24;8.93;;;8.10;;
2930;SDS011;1475;51.454;7.150;2022-08-14T02:50:55;8.70;;;7.90;;
2930;SDS011;1475;51.454;7.150;2022-08-14T02:53:23;9.50;;;8.52;;
2930;SDS011;1475;51.454;7.150;2022-08-14T02:55:50;8.90;;;8.00;;
2930;SDS011;1475;51.454;7.150;2022-08-14T02:58:18;8.52;;;7.72;;
2930;SDS011;1475;51.454;7.150;2022-08-14T03:00:47;9.30;;;8.40;;
2930;SDS011;1475;51.454;7.150;2022-08-14T03:03:16;9.57;;;8.57;;
2930;SDS011;1475;51.454;7.150;2022-08-14T03:05:47;8.57;;;7.78;;
2930;SDS011;1475;51.454;7.150;2022-08-14T03:08:16;9.02;;;8.05;;
2930;SDS011;1475;51.454;7.150;2022-08-14T03:10:43;11.25;;;9.00;;
2930;SDS011;1475;51.454;7.150;2022-08-14T03:13:10;8.30;;;7.60;;
2930;SDS011;1475;51.454;7.150;2022-08-14T03:15:37;9.05;;;7.93;;
2930;SDS011;1475;51.454;7.150;2022-08-14T03:18:08;10.00;;;8.60;;
2930;SDS011;1475;51.454;7.150;2022-08-14T03:20:37;10.15;;;8.82;;
2930;SDS011;1475;51.454;7.150;2022-08-14T03:23:04;10.02;;;8.35;;
2930;SDS011;1475;51.454;7.150;2022-08-14T03:25:31;9.98;;;8.95;;
2930;SDS011;1475;51.454;7.150;2022-08-14T03:28:00;10.00;;;8.82;;
2930;SDS011;1475;51.454;7.150;2022-08-14T03:30:28;9.15;;;8.05;;
2930;SDS011;1475;51.454;7.150;2022-08-14T03:32:56;9.60;;;8.70;;
2930;SDS011;1475;51.454;7.150;2022-08-14T03:35:24;9.50;;;8.60;;
2930;SDS011;1475;51.454;7.150;2022-08-14T03:37:53;10.57;;;9.00;;
2930;SDS011;1475;51.454;7.150;2022-08-14T03:40:20;9.95;;;8.68;;
2930;SDS011;1475;51.454;7.150;2022-08-14T03:42:49;9.15;;;8.15;;
2930;SDS011;1475;51.454;7.150;2022-08-14T03:45:19;9.90;;;8.90;;
2930;SDS011;1475;51.454;7.150;2022-08-14T03:47:46;9.20;;;8.35;;
2930;SDS011;1475;51.454;7.150;2022-08-14T03:50:13;9.90;;;8.80;;
2930;SDS011;1475;51.454;7.150;2022-08-14T03:52:40;9.60;;;8.60;;
2930;SDS011;1475;51.454;7.150;2022-08-14T03:55:10;11.27;;;9.27;;
2930;SDS011;1475;51.454;7.150;2022-08-14T03:57:38;9.38;;;8.05;;
2930;SDS011;1475;51.454;7.150;2022-08-14T04:00:06;10.45;;;9.40;;
2930;SDS011;1475;51.454;7.150;2022-08-14T04:02:36;9.50;;;8.50;;
2930;SDS011;1475;51.454;7.150;2022-08-14T04:05:04;10.48;;;9.38;;
2930;SDS011;1475;51.454;7.150;2022-08-14T04:07:32;9.38;;;8.38;;
2930;SDS011;1475;51.454;7.150;2022-08-14T04:09:59;9.93;;;8.77;;
2930;SDS011;1475;51.454;7.150;2022-08-14T04:12:28;10.10;;;9.10;;
2930;SDS011;1475;51.454;7.150;2022-08-14T04:14:55;10.15;;;9.15;;
2930;SDS011;1475;51.454;7.150;2022-08-14T04:17:22;10.13;;;9.23;;
2930;SDS011;1475;51.454;7.150;2022-08-14T04:19:50;10.70;;;9.45;;
2930;SDS011;1475;51.454;7.150;2022-08-14T04:22:17;10.70;;;9.60;;
2930;SDS011;1475;51.454;7.150;2022-08-14T04:24:44;10.75;;;9.65;;
2930;SDS011;1475;51.454;7.150;2022-08-14T04:27:11;10.40;;;9.30;;
2930;SDS011;1475;51.454;7.150;2022-08-14T04:29:40;10.07;;;9.15;;
2930;SDS011;1475;51.454;7.150;2022-08-14T04:32:08;10.60;;;9.60;;
2930;SDS011;1475;51.454;7.150;2022-08-14T04:34:36;10.98;;;9.88;;
2930;SDS011;1475;51.454;7.150;2022-08-14T04:37:06;10.88;;;9.77;;
2930;SDS011;1475;51.454;7.150;2022-08-14T04:39:51;11.00;;;9.73;;
2930;SDS011;1475;51.454;7.150;2022-08-14T04:42:36;10.60;;;9.60;;
2930;SDS011;1475;51.454;7.150;2022-08-14T04:45:22;11.50;;;9.90;;
2930;SDS011;1475;51.454;7.150;2022-08-14T04:47:51;10.80;;;9.52;;
2930;SDS011;1475;51.454;7.150;2022-08-14T04:50:36;10.40;;;9.30;;
2930;SDS011;1475;51.454;7.150;2022-08-14T04:53:04;10.52;;;9.52;;
2930;SDS011;1475;51.454;7.150;2022-08-14T04:55:31;10.82;;;9.82;;
2930;SDS011;1475;51.454;7.150;2022-08-14T04:57:58;10.55;;;9.45;;
2930;SDS011;1475;51.454;7.150;2022-08-14T05:00:27;11.85;;;9.50;;
2930;SDS011;1475;51.454;7.150;2022-08-14T05:02:53;11.15;;;9.25;;
2930;SDS011;1475;51.454;7.150;2022-08-14T05:05:21;10.30;;;9.30;;
2930;SDS011;1475;51.454;7.150;2022-08-14T05:07:49;10.95;;;9.85;;
2930;SDS011;1475;51.454;7.150;2022-08-14T05:10:16;11.40;;;9.65;;
2930;SDS011;1475;51.454;7.150;2022-08-14T05:12:50;11.18;;;9.73;;
2930;SDS011;1475;51.454;7.150;2022-08-14T05:15:17;10.90;;;9.80;;
2930;SDS011;1475;51.454;7.150;2022-08-14T05:17:47;9.77;;;8.77;;
2930;SDS011;1475;51.454;7.150;2022-08-14T05:20:14;11.15;;;10.05;;
2930;SDS011;1475;51.454;7.150;2022-08-14T05:22:41;11.40;;;10.20;;
2930;SDS011;1475;51.454;7.150;2022-08-14T05:25:09;10.93;;;9.82;;
2930;SDS011;1475;51.454;7.150;2022-08-14T05:27:36;9.95;;;8.80;;
2930;SDS011;1475;51.454;7.150;2022-08-14T05:30:04;10.20;;;9.20;;
2930;SDS011;1475;51.454;7.150;2022-08-14T05:32:32;11.02;;;9.45;;
2930;SDS011;1475;51.454;7.150;2022-08-14T05:35:00;11.88;;;10.68;;
2930;SDS011;1475;51.454;7.150;2022-08-14T05:37:27;12.00;;;10.80;;
2930;SDS011;1475;51.454;7.150;2022-08-14T05:39:54;10.85;;;9.80;;
2930;SDS011;1475;51.454;7.150;2022-08-14T05:42:22;10.93;;;9.93;;
2930;SDS011;1475;51.454;7.150;2022-08-14T05:44:49;11.20;;;10.10;;
2930;SDS011;1475;51.454;7.150;2022-08-14T05:47:15;11.15;;;10.05;;
2930;SDS011;1475;51.454;7.150;2022-08-14T05:49:42;11.15;;;10.05;;
2930;SDS011;1475;51.454;7.150;2022-08-14T05:52:11;10.85;;;9.75;;
2930;SDS011;1475;51.454;7.150;2022-08-14T05:54:38;11.25;;;10.15;;
2930;SDS011;1475;51.454;7.150;2022-08-14T05:57:04;11.10;;;9.70;;
2930;SDS011;1475;51.454;7.150;2022-08-14T05:59:31;11.00;;;9.90;;
2930;SDS011;1475;51.454;7.150;2022-08-14T06:01:59;10.48;;;9.57;;
2930;SDS011;1475;51.454;7.150;2022-08-14T06:04:26;11.40;;;10.30;;
2930;SDS011;1475;51.454;7.150;2022-08-14T06:06:54;12.13;;;10.20;;
2930;SDS011;1475;51.454;7.150;2022-08-14T06:09:22;10.95;;;9.85;;
2930;SDS011;1475;51.454;7.150;2022-08-14T06:11:49;11.77;;;10.15;;
2930;SDS011;1475;51.454;7.150;2022-08-14T06:14:16;11.73;;;10.50;;
2930;SDS011;1475;51.454;7.150;2022-08-14T06:16:43;10.98;;;9.60;;
2930;SDS011;1475;51.454;7.150;2022-08-14T06:19:11;11.57;;;10.38;;
2930;SDS011;1475;51.454;7.150;2022-08-14T06:21:38;12.90;;;10.70;;
2930;SDS011;1475;51.454;7.150;2022-08-14T06:24:05;11.63;;;10.63;;
2930;SDS011;1475;51.454;7.150;2022-08-14T06:26:34;10.90;;;10.00;;
2930;SDS011;1475;51.454;7.150;2022-08-14T06:29:01;12.10;;;9.30;;
2930;SDS011;1475;51.454;7.150;2022-08-14T06:31:28;11.60;;;10.40;;
2930;SDS011;1475;51.454;7.150;2022-08-14T06:33:55;11.75;;;10.15;;
2930;SDS011;1475;51.454;7.150;2022-08-14T06:36:22;11.40;;;10.30;;
2930;SDS011;1475;51.454;7.150;2022-08-14T06:38:49;12.70;;;10.50;;
2930;SDS011;1475;51.454;7.150;2022-08-14T06:41:17;13.25;;;10.98;;
2930;SDS011;1475;51.454;7.150;2022-08-14T06:43:46;13.40;;;10.90;;
2930;SDS011;1475;51.454;7.150;2022-08-14T06:46:12;11.50;;;10.32;;
2930;SDS011;1475;51.454;7.150;2022-08-14T06:48:41;13.70;;;10.77;;
2930;SDS011;1475;51.454;7.150;2022-08-14T06:51:08;11.77;;;10.60;;
2930;SDS011;1475;51.454;7.150;2022-08-14T06:53:35;11.23;;;9.93;;
2930;SDS011;1475;51.454;7.150;2022-08-14T06:56:02;9.95;;;8.98;;
2930;SDS011;1475;51.454;7.150;2022-08-14T06:58:29;12.02;;;10.93;;
2930;SDS011;1475;51.454;7.150;2022-08-14T07:00:57;10.63;;;9.63;;
2930;SDS011;1475;51.454;7.150;2022-08-14T07:03:43;11.10;;;10.00;;
2930;SDS011;1475;51.454;7.150;2022-08-14T07:06:27;10.70;;;9.68;;
2930;SDS011;1475;51.454;7.150;2022-08-14T07:08:54;10.95;;;9.95;;
2930;SDS011;1475;51.454;7.150;2022-08-14T07:11:21;11.40;;;10.30;;
2930;SDS011;1475;51.454;7.150;2022-08-14T07:13:48;10.60;;;9.60;;
2930;SDS011;1475;51.454;7.150;2022-08-14T07:16:16;10.90;;;9.77;;
2930;SDS011;1475;51.454;7.150;2022-08-14T07:18:43;10.97;;;9.87;;
2930;SDS011;1475;51.454;7.150;2022-08-14T07:21:10;11.35;;;10.20;;
2930;SDS011;1475;51.454;7.150;2022-08-14T07:23:37;10.70;;;9.70;;
2930;SDS011;1475;51.454;7.150;2022-08-14T07:26:04;10.95;;;9.95;;
2930;SDS011;1475;51.454;7.150;2022-08-14T07:28:33;11.05;;;10.05;;
2930;SDS011;1475;51.454;7.150;2022-08-14T07:31:02;10.90;;;9.88;;
2930;SDS011;1475;51.454;7.150;2022-08-14T07:33:33;9.85;;;9.00;;
2930;SDS011;1475;51.454;7.150;2022-08-14T07:36:03;10.80;;;9.70;;
2930;SDS011;1475;51.454;7.150;2022-08-14T07:38:33;10.52;;;9.63;;
2930;SDS011;1475;51.454;7.150;2022-08-14T07:41:05;10.10;;;9.10;;
2930;SDS011;1475;51.454;7.150;2022-08-14T07:43:33;10.93;;;9.68;;
2930;SDS011;1475;51.454;7.150;2022-08-14T07:46:00;10.20;;;9.20;;
2930;SDS011;1475;51.454;7.150;2022-08-14T07:48:27;10.85;;;9.85;;
2930;SDS011;1475;51.454;7.150;2022-08-14T07:50:56;9.60;;;8.70;;
2930;SDS011;1475;51.454;7.150;2022-08-14T07:53:23;10.35;;;9.43;;
2930;SDS011;1475;51.454;7.150;2022-08-14T07:55:50;10.35;;;9.48;;
2930;SDS011;1475;51.454;7.150;2022-08-14T07:58:17;10.50;;;9.60;;
2930;SDS011;1475;51.454;7.150;2022-08-14T08:00:44;11.18;;;10.07;;
2930;SDS011;1475;51.454;7.150;2022-08-14T08:03:11;9.80;;;8.90;;
2930;SDS011;1475;51.454;7.150;2022-08-14T08:05:39;10.35;;;9.35;;
2930;SDS011;1475;51.454;7.150;2022-08-14T08:08:08;9.93;;;8.90;;
2930;SDS011;1475;51.454;7.150;2022-08-14T08:10:36;10.20;;;9.20;;
2930;SDS011;1475;51.454;7.150;2022-08-14T08:13:06;9.52;;;8.73;;
2930;SDS011;1475;51.454;7.150;2022-08-14T08:15:36;10.10;;;9.20;;
2930;SDS011;1475;51.454;7.150;2022-08-14T08:18:05;10.38;;;9.30;;
2930;SDS011;1475;51.454;7.150;2022-08-14T08:20:34;9.87;;;9.07;;
2930;SDS011;1475;51.454;7.150;2022-08-14T08:23:02;9.65;;;8.85;;
2930;SDS011;1475;51.454;7.150;2022-08-14T08:25:33;9.85;;;8.95;;
2930;SDS011;1475;51.454;7.150;2022-08-14T08:28:03;10.45;;;9.35;;
2930;SDS011;1475;51.454;7.150;2022-08-14T08:30:33;10.23;;;9.32;;
2930;SDS011;1475;51.454;7.150;2022-08-14T08:33:01;9.85;;;8.98;;
2930;SDS011;1475;51.454;7.150;2022-08-14T08:35:30;11.20;;;10.00;;
2930;SDS011;1475;51.454;7.150;2022-08-14T08:38:02;10.68;;;9.68;;
2930;SDS011;1475;51.454;7.150;2022-08-14T08:40:33;11.00;;;10.00;;
2930;SDS011;1475;51.454;7.150;2022-08-14T08:43:01;10.38;;;9.48;;
2930;SDS011;1475;51.454;7.150;2022-08-14T08:45:30;10.68;;;9.77;;
2930;SDS011;1475;51.454;7.150;2022-08-14T08:47:58;10.68;;;9.57;;
2930;SDS011;1475;51.454;7.150;2022-08-14T08:50:26;10.40;;;9.40;;
2930;SDS011;1475;51.454;7.150;2022-08-14T08:52:55;10.05;;;9.15;;
2930;SDS011;1475;51.454;7.150;2022-08-14T08:55:25;10.25;;;9.35;;
2930;SDS011;1475;51.454;7.150;2022-08-14T08:57:55;10.57;;;9.57;;
2930;SDS011;1475;51.454;7.150;2022-08-14T09:00:24;9.63;;;8.73;;
2930;SDS011;1475;51.454;7.150;2022-08-14T09:02:55;9.65;;;8.77;;
2930;SDS011;1475;51.454;7.150;2022-08-14T09:05:24;9.10;;;8.25;;
2930;SDS011;1475;51.454;7.150;2022-08-14T09:07:51;9.95;;;9.05;;
2930;SDS011;1475;51.454;7.150;2022-08-14T09:10:18;9.88;;;8.98;;
2930;SDS011;1475;51.454;7.150;2022-08-14T09:12:45;9.57;;;8.68;;
2930;SDS011;1475;51.454;7.150;2022-08-14T09:15:13;10.27;;;9.30;;
2930;SDS011;1475;51.454;7.150;2022-08-14T09:17:47;9.53;;;8.53;;
2930;SDS011;1475;51.454;7.150;2022-08-14T09:20:14;9.02;;;8.23;;
2930;SDS011;1475;51.454;7.150;2022-08-14T09:22:40;9.07;;;8.35;;
2930;SDS011;1475;51.454;7.150;2022-08-14T09:25:08;9.00;;;8.10;;
2930;SDS011;1475;51.454;7.150;2022-08-14T09:27:35;8.50;;;7.80;;
2930;SDS011;1475;51.454;7.150;2022-08-14T09:30:03;9.00;;;8.20;;
2930;SDS011;1475;51.454;7.150;2022-08-14T09:32:35;8.95;;;8.15;;
2930;SDS011;1475;51.454;7.150;2022-08-14T09:35:08;8.48;;;7.68;;
2930;SDS011;1475;51.454;7.150;2022-08-14T09:37:44;8.63;;;7.50;;
2930;SDS011;1475;51.454;7.150;2022-08-14T09:40:23;7.93;;;7.13;;
2930;SDS011;1475;51.454;7.150;2022-08-14T09:43:01;8.70;;;7.60;;
2930;SDS011;1475;51.454;7.150;2022-08-14T09:45:38;9.02;;;8.20;;
2930;SDS011;1475;51.454;7.150;2022-08-14T09:48:16;7.80;;;7.00;;
2930;SDS011;1475;51.454;7.150;2022-08-14T09:50:44;13.77;;;8.07;;
2930;SDS011;1475;51.454;7.150;2022-08-14T09:53:14;8.80;;;7.90;;
2930;SDS011;1475;51.454;7.150;2022-08-14T09:55:43;8.30;;;7.50;;
2930;SDS011;1475;51.454;7.150;2022-08-14T09:58:12;8.30;;;7.50;;
2930;SDS011;1475;51.454;7.150;2022-08-14T10:00:41;10.10;;;8.02;;
2930;SDS011;1475;51.454;7.150;2022-08-14T10:03:10;8.02;;;7.22;;
2930;SDS011;1475;51.454;7.150;2022-08-14T10:05:39;8.77;;;7.88;;
2930;SDS011;1475;51.454;7.150;2022-08-14T10:08:15;8.00;;;7.20;;
2930;SDS011;1475;51.454;7.150;2022-08-14T10:10:44;7.60;;;6.90;;
2930;SDS011;1475;51.454;7.150;2022-08-14T10:13:20;7.55;;;6.82;;
2930;SDS011;1475;51.454;7.150;2022-08-14T10:15:49;8.30;;;7.50;;
2930;SDS011;1475;51.454;7.150;2022-08-14T10:18:17;11.43;;;7.65;;
2930;SDS011;1475;51.454;7.150;2022-08-14T10:20:52;7.40;;;6.70;;
2930;SDS011;1475;51.454;7.150;2022-08-14T10:23:22;6.88;;;6.28;;
2930;SDS011;1475;51.454;7.150;2022-08-14T10:25:50;7.68;;;6.88;;
2930;SDS011;1475;51.454;7.150;2022-08-14T10:28:18;7.75;;;6.95;;
2930;SDS011;1475;51.454;7.150;2022-08-14T10:30:47;7.70;;;7.00;;
2930;SDS011;1475;51.454;7.150;2022-08-14T10:33:27;9.30;;;7.72;;
2930;SDS011;1475;51.454;7.150;2022-08-14T10:35:58;7.53;;;6.75;;
2930;SDS011;1475;51.454;7.150;2022-08-14T10:38:27;7.40;;;6.65;;
2930;SDS011;1475;51.454;7.150;2022-08-14T10:40:56;8.65;;;7.10;;
2930;SDS011;1475;51.454;7.150;2022-08-14T10:43:37;7.35;;;6.65;;
2930;SDS011;1475;51.454;7.150;2022-08-14T10:46:11;7.50;;;6.90;;
2930;SDS011;1475;51.454;7.150;2022-08-14T10:48:39;7.50;;;6.70;;
2930;SDS011;1475;51.454;7.150;2022-08-14T10:51:08;8.20;;;7.50;;
2930;SDS011;1475;51.454;7.150;2022-08-14T10:53:35;7.55;;;6.85;;
2930;SDS011;1475;51.454;7.150;2022-08-14T10:56:08;8.18;;;7.47;;
2930;SDS011;1475;51.454;7.150;2022-08-14T10:58:37;7.70;;;7.00;;
2930;SDS011;1475;51.454;7.150;2022-08-14T11:01:04;8.40;;;7.60;;
2930;SDS011;1475;51.454;7.150;2022-08-14T11:03:38;9.70;;;7.70;;
2930;SDS011;1475;51.454;7.150;2022-08-14T11:06:11;7.47;;;6.78;;
2930;SDS011;1475;51.454;7.150;2022-08-14T11:08:44;7.35;;;6.65;;
2930;SDS011;1475;51.454;7.150;2022-08-14T11:11:13;7.90;;;7.20;;
2930;SDS011;1475;51.454;7.150;2022-08-14T11:13:42;7.97;;;7.20;;
2930;SDS011;1475;51.454;7.150;2022-08-14T11:16:10;8.10;;;7.40;;
2930;SDS011;1475;51.454;7.150;2022-08-14T11:18:42;7.30;;;6.60;;
2930;SDS011;1475;51.454;7.150;2022-08-14T11:21:14;7.13;;;6.43;;
2930;SDS011;1475;51.454;7.150;2022-08-14T11:23:45;7.60;;;7.00;;
2930;SDS011;1475;51.454;7.150;2022-08-14T11:26:13;7.50;;;6.90;;
2930;SDS011;1475;51.454;7.150;2022-08-14T11:28:43;7.30;;;6.60;;
2930;SDS011;1475;51.454;7.150;2022-08-14T11:31:11;7.57;;;6.93;;
2930;SDS011;1475;51.454;7.150;2022-08-14T11:33:39;7.60;;;6.90;;
2930;SDS011;1475;51.454;7.150;2022-08-14T11:36:07;7.10;;;6.50;;
2930;SDS011;1475;51.454;7.150;2022-08-14T11:38:39;7.82;;;7.03;;
2930;SDS011;1475;51.454;7.150;2022-08-14T11:41:07;8.25;;;7.45;;
2930;SDS011;1475;51.454;7.150;2022-08-14T11:43:38;7.47;;;6.88;;
2930;SDS011;1475;51.454;7.150;2022-08-14T11:46:05;7.77;;;7.10;;
2930;SDS011;1475;51.454;7.150;2022-08-14T11:48:43;7.68;;;7.07;;
2930;SDS011;1475;51.454;7.150;2022-08-14T11:51:12;7.28;;;6.57;;
2930;SDS011;1475;51.454;7.150;2022-08-14T11:53:52;7.53;;;6.72;;
2930;SDS011;1475;51.454;7.150;2022-08-14T11:56:20;7.18;;;6.47;;
2930;SDS011;1475;51.454;7.150;2022-08-14T11:58:51;6.97;;;6.40;;
2930;SDS011;1475;51.454;7.150;2022-08-14T12:01:23;6.90;;;6.30;;
2930;SDS011;1475;51.454;7.150;2022-08-14T12:03:52;7.57;;;6.87;;
2930;SDS011;1475;51.454;7.150;2022-08-14T12:06:22;7.43;;;6.73;;
2930;SDS011;1475;51.454;7.150;2022-08-14T12:08:50;6.93;;;6.40;;
2930;SDS011;1475;51.454;7.150;2022-08-14T12:11:20;7.80;;;7.10;;
2930;SDS011;1475;51.454;7.150;2022-08-14T12:14:05;7.47;;;6.78;;
2930;SDS011;1475;51.454;7.150;2022-08-14T12:16:40;7.30;;;6.47;;
2930;SDS011;1475;51.454;7.150;2022-08-14T12:19:09;6.47;;;5.88;;
2930;SDS011;1475;51.454;7.150;2022-08-14T12:21:36;6.47;;;5.90;;
2930;SDS011;1475;51.454;7.150;2022-08-14T12:24:05;7.20;;;6.33;;
2930;SDS011;1475;51.454;7.150;2022-08-14T12:26:34;6.45;;;5.95;;
2930;SDS011;1475;51.454;7.150;2022-08-14T12:29:07;6.38;;;5.88;;
2930;SDS011;1475;51.454;7.150;2022-08-14T12:31:35;6.32;;;5.72;;
2930;SDS011;1475;51.454;7.150;2022-08-14T12:34:03;6.18;;;5.53;;
2930;SDS011;1475;51.454;7.150;2022-08-14T12:36:32;6.22;;;5.63;;
2930;SDS011;1475;51.454;7.150;2022-08-14T12:39:00;6.00;;;5.13;;
2930;SDS011;1475;51.454;7.150;2022-08-14T12:41:32;6.03;;;5.53;;
2930;SDS011;1475;51.454;7.150;2022-08-14T12:44:00;6.50;;;5.90;;
2930;SDS011;1475;51.454;7.150;2022-08-14T12:46:28;7.15;;;5.57;;
2930;SDS011;1475;51.454;7.150;2022-08-14T12:48:58;5.80;;;5.30;;
2930;SDS011;1475;51.454;7.150;2022-08-14T12:51:30;6.00;;;5.50;;
2930;SDS011;1475;51.454;7.150;2022-08-14T12:53:58;5.60;;;5.00;;
2930;SDS011;1475;51.454;7.150;2022-08-14T12:56:26;5.28;;;4.78;;
2930;SDS011;1475;51.454;7.150;2022-08-14T12:58:55;5.45;;;5.05;;
2930;SDS011;1475;51.454;7.150;2022-08-14T13:01:24;6.18;;;4.90;;
2930;SDS011;1475;51.454;7.150;2022-08-14T13:04:02;6.63;;;6.13;;
2930;SDS011;1475;51.454;7.150;2022-08-14T13:06:31;5.55;;;5.15;;
2930;SDS011;1475;51.454;7.150;2022-08-14T13:08:59;6.30;;;5.70;;
2930;SDS011;1475;51.454;7.150;2022-08-14T13:11:26;6.00;;;5.40;;
2930;SDS011;1475;51.454;7.150;2022-08-14T13:13:59;5.93;;;5.53;;
2930;SDS011;1475;51.454;7.150;2022-08-14T13:16:28;6.33;;;5.73;;
2930;SDS011;1475;51.454;7.150;2022-08-14T13:18:55;6.00;;;5.50;;
2930;SDS011;1475;51.454;7.150;2022-08-14T13:21:25;5.82;;;5.32;;
2930;SDS011;1475;51.454;7.150;2022-08-14T13:23:55;5.78;;;5.30;;
2930;SDS011;1475;51.454;7.150;2022-08-14T13:26:23;4.75;;;4.35;;
2930;SDS011;1475;51.454;7.150;2022-08-14T13:28:50;4.90;;;4.43;;
2930;SDS011;1475;51.454;7.150;2022-08-14T13:31:19;5.13;;;4.72;;
2930;SDS011;1475;51.454;7.150;2022-08-14T13:33:49;5.10;;;4.70;;
2930;SDS011;1475;51.454;7.150;2022-08-14T13:36:16;5.37;;;4.90;;
2930;SDS011;1475;51.454;7.150;2022-08-14T13:38:43;5.43;;;4.93;;
2930;SDS011;1475;51.454;7.150;2022-08-14T13:41:13;5.85;;;5.40;;
2930;SDS011;1475;51.454;7.150;2022-08-14T13:43:45;5.97;;;5.47;;
2930;SDS011;1475;51.454;7.150;2022-08-14T13:46:15;6.30;;;5.80;;
2930;SDS011;1475;51.454;7.150;2022-08-14T13:48:44;6.27;;;5.20;;
2930;SDS011;1475;51.454;7.150;2022-08-14T13:51:11;6.15;;;5.55;;
2930;SDS011;1475;51.454;7.150;2022-08-14T13:53:42;6.68;;;6.07;;
2930;SDS011;1475;51.454;7.150;2022-08-14T13:56:12;6.00;;;5.60;;
2930;SDS011;1475;51.454;7.150;2022-08-14T13:58:40;6.00;;;5.40;;
2930;SDS011;1475;51.454;7.150;2022-08-14T14:01:09;5.93;;;5.43;;
2930;SDS011;1475;51.454;7.150;2022-08-14T14:03:37;5.90;;;5.40;;
2930;SDS011;1475;51.454;7.150;2022-08-14T14:06:07;6.38;;;5.88;;
2930;SDS011;1475;51.454;7.150;2022-08-14T14:08:35;6.30;;;5.35;;
2930;SDS011;1475;51.454;7.150;2022-08-14T14:11:06;6.25;;;5.38;;
2930;SDS011;1475;51.454;7.150;2022-08-14T14:13:33;5.85;;;5.35;;
2930;SDS011;1475;51.454;7.150;2022-08-14T14:16:03;5.57;;;5.07;;
2930;SDS011;1475;51.454;7.150;2022-08-14T14:18:32;5.35;;;4.95;;
2930;SDS011;1475;51.454;7.150;2022-08-14T14:21:00;4.95;;;4.55;;
2930;SDS011;1475;51.454;7.150;2022-08-14T14:23:30;5.30;;;4.80;;
2930;SDS011;1475;51.454;7.150;2022-08-14T14:25:59;5.90;;;5.40;;
2930;SDS011;1475;51.454;7.150;2022-08-14T14:28:27;4.97;;;4.40;;
2930;SDS011;1475;51.454;7.150;2022-08-14T14:30:56;5.10;;;4.60;;
2930;SDS011;1475;51.454;7.150;2022-08-14T14:33:26;5.00;;;4.50;;
2930;SDS011;1475;51.454;7.150;2022-08-14T14:35:57;5.30;;;4.77;;
2930;SDS011;1475;51.454;7.150;2022-08-14T14:38:25;5.28;;;4.78;;
2930;SDS011;1475;51.454;7.150;2022-08-14T14:40:58;5.10;;;4.63;;
2930;SDS011;1475;51.454;7.150;2022-08-14T14:43:26;5.45;;;4.95;;
2930;SDS011;1475;51.454;7.150;2022-08-14T14:45:54;5.50;;;4.88;;
2930;SDS011;1475;51.454;7.150;2022-08-14T14:48:21;5.25;;;4.85;;
2930;SDS011;1475;51.454;7.150;2022-08-14T14:50:48;5.50;;;5.00;;
2930;SDS011;1475;51.454;7.150;2022-08-14T14:53:16;5.47;;;4.97;;
2930;SDS011;1475;51.454;7.150;2022-08-14T14:55:46;5.50;;;5.00;;
2930;SDS011;1475;51.454;7.150;2022-08-14T14:58:13;5.18;;;4.78;;
2930;SDS011;1475;51.454;7.150;2022-08-14T15:00:42;5.13;;;4.63;;
2930;SDS011;1475;51.454;7.150;2022-08-14T15:03:09;5.03;;;4.63;;
2930;SDS011;1475;51.454;7.150;2022-08-14T15:05:36;5.60;;;4.63;;
2930;SDS011;1475;51.454;7.150;2022-08-14T15:08:04;5.00;;;4.50;;
2930;SDS011;1475;51.454;7.150;2022-08-14T15:10:31;5.55;;;5.05;;
2930;SDS011;1475;51.454;7.150;2022-08-14T15:13:00;5.50;;;5.00;;
2930;SDS011;1475;51.454;7.150;2022-08-14T15:15:27;5.25;;;4.85;;
2930;SDS011;1475;51.454;7.150;2022-08-14T15:17:53;5.00;;;4.53;;
2930;SDS011;1475;51.454;7.150;2022-08-14T15:20:23;5.10;;;4.70;;
2930;SDS011;1475;51.454;7.150;2022-08-14T15:22:49;5.20;;;4.80;;